Time;durP1;ratioP1;P1;durP2;ratioP2;P2;SDS_P1;SDS_P2;PMS_P1;PMS_P2;Temp;Humidity;BMP_temperature;BMP_pressure;BME280_temperature;BME280_humidity;BME280_pressure;Samples;Min_cycle;Max_cycle;Signal;HPM_P1;HPM_P2
2020/07/03 00:01:04;;;;;;;1.41;1.31;;;;;;;21.80;65.29;100430.69;;;;-55
2020/07/03 00:04:05;;;;;;;1.50;1.40;;;;;;;21.80;65.42;100431.11;;;;-55
2020/07/03 00:07:04;;;;;;;1.50;1.40;;;;;;;21.78;65.35;100430.61;;;;-55
2020/07/03 00:10:05;;;;;;;2.01;1.45;;;;;;;21.78;65.42;100428.17;;;;-55
2020/07/03 00:13:04;;;;;;;1.42;1.32;;;;;;;21.78;65.40;100427.69;;;;-56
2020/07/03 00:16:04;;;;;;;1.50;1.40;;;;;;;21.78;65.38;100428.66;;;;-55
2020/07/03 00:19:04;;;;;;;1.40;1.30;;;;;;;21.77;65.31;100427.62;;;;-54
2020/07/03 00:22:04;;;;;;;1.40;1.30;;;;;;;21.76;65.34;100432.09;;;;-55
2020/07/03 00:25:04;;;;;;;1.47;1.31;;;;;;;21.76;65.45;100439.28;;;;-55
2020/07/03 00:28:05;;;;;;;1.59;1.42;;;;;;;21.75;65.40;100442.62;;;;-55
2020/07/03 00:31:04;;;;;;;1.83;1.49;;;;;;;21.75;65.36;100443.28;;;;-55
2020/07/03 00:34:04;;;;;;;1.46;1.36;;;;;;;21.74;65.36;100444.98;;;;-54
2020/07/03 00:37:04;;;;;;;2.10;1.47;;;;;;;21.74;65.39;100445.07;;;;-55
2020/07/03 00:40:04;;;;;;;1.53;1.43;;;;;;;21.73;65.33;100446.71;;;;-56
2020/07/03 00:43:05;;;;;;;1.50;1.40;;;;;;;21.74;65.31;100447.11;;;;-55
2020/07/03 00:46:04;;;;;;;1.48;1.38;;;;;;;21.73;65.33;100446.23;;;;-55
2020/07/03 00:49:04;;;;;;;1.40;1.30;;;;;;;21.72;65.37;100445.97;;;;-55
2020/07/03 00:52:04;;;;;;;1.61;1.51;;;;;;;21.72;65.28;100450.94;;;;-55
2020/07/03 00:55:04;;;;;;;1.61;1.48;;;;;;;21.72;65.25;100456.90;;;;-55
2020/07/03 00:58:04;;;;;;;1.75;1.50;;;;;;;21.71;65.27;100456.34;;;;-55
2020/07/03 01:01:04;;;;;;;1.71;1.41;;;;;;;21.71;65.34;100450.97;;;;-55
2020/07/03 01:04:05;;;;;;;1.56;1.46;;;;;;;21.70;65.33;100454.13;;;;-55
2020/07/03 01:07:04;;;;;;;1.59;1.49;;;;;;;21.70;65.36;100454.45;;;;-55
2020/07/03 01:10:04;;;;;;;2.26;1.41;;;;;;;21.70;65.28;100455.69;;;;-55
2020/07/03 01:13:04;;;;;;;1.50;1.40;;;;;;;21.69;65.31;100459.52;;;;-55
2020/07/03 01:16:04;;;;;;;1.49;1.39;;;;;;;21.69;65.19;100459.37;;;;-56
2020/07/03 01:19:04;;;;;;;1.50;1.40;;;;;;;21.69;65.21;100458.63;;;;-55
2020/07/03 01:22:04;;;;;;;1.50;1.40;;;;;;;21.68;65.34;100453.80;;;;-55
2020/07/03 01:25:04;;;;;;;1.53;1.43;;;;;;;21.68;65.29;100453.56;;;;-56
2020/07/03 01:28:04;;;;;;;1.50;1.40;;;;;;;21.68;65.24;100457.23;;;;-55
2020/07/03 01:31:04;;;;;;;1.60;1.50;;;;;;;21.67;65.35;100458.38;;;;-55
2020/07/03 01:34:04;;;;;;;1.47;1.37;;;;;;;21.67;65.26;100456.52;;;;-55
2020/07/03 01:37:04;;;;;;;1.67;1.57;;;;;;;21.67;65.20;100458.64;;;;-54
2020/07/03 01:40:04;;;;;;;1.44;1.34;;;;;;;21.67;65.25;100458.16;;;;-55
2020/07/03 01:43:04;;;;;;;1.47;1.37;;;;;;;21.66;65.21;100456.67;;;;-55
2020/07/03 01:46:04;;;;;;;1.59;1.49;;;;;;;21.66;65.19;100457.39;;;;-55
2020/07/03 01:49:04;;;;;;;1.50;1.40;;;;;;;21.66;65.27;100462.12;;;;-55
2020/07/03 01:52:04;;;;;;;1.58;1.48;;;;;;;21.65;65.13;100462.31;;;;-55
2020/07/03 01:55:04;;;;;;;1.48;1.38;;;;;;;21.65;65.22;100461.73;;;;-55
2020/07/03 01:58:05;;;;;;;1.63;1.53;;;;;;;21.65;65.12;100466.55;;;;-55
2020/07/03 02:01:04;;;;;;;1.53;1.43;;;;;;;21.64;65.25;100468.36;;;;-55
2020/07/03 02:04:04;;;;;;;1.58;1.48;;;;;;;21.64;65.12;100471.84;;;;-55
2020/07/03 02:07:04;;;;;;;1.45;1.35;;;;;;;21.64;65.17;100473.88;;;;-55
2020/07/03 02:10:05;;;;;;;1.46;1.31;;;;;;;21.64;65.22;100478.20;;;;-55
2020/07/03 02:13:04;;;;;;;1.50;1.40;;;;;;;21.63;65.13;100479.60;;;;-55
2020/07/03 02:16:05;;;;;;;1.63;1.53;;;;;;;21.63;65.15;100478.95;;;;-55
2020/07/03 02:19:04;;;;;;;1.41;1.31;;;;;;;21.63;65.16;100483.77;;;;-55
2020/07/03 02:22:05;;;;;;;1.40;1.30;;;;;;;21.63;65.12;100483.11;;;;-55
2020/07/03 02:25:04;;;;;;;1.51;1.41;;;;;;;21.62;65.15;100485.00;;;;-54
2020/07/03 02:28:04;;;;;;;1.60;1.50;;;;;;;21.62;65.10;100483.27;;;;-55
2020/07/03 02:31:04;;;;;;;1.90;1.53;;;;;;;21.61;65.12;100485.80;;;;-55
2020/07/03 02:34:04;;;;;;;1.51;1.41;;;;;;;21.61;65.15;100486.38;;;;-55
2020/07/03 02:37:04;;;;;;;1.60;1.50;;;;;;;21.61;65.11;100495.92;;;;-55
2020/07/03 02:40:04;;;;;;;1.54;1.44;;;;;;;21.60;65.15;100496.91;;;;-55
2020/07/03 02:43:04;;;;;;;1.91;1.42;;;;;;;21.60;65.11;100493.48;;;;-54
2020/07/03 02:46:04;;;;;;;1.50;1.40;;;;;;;21.60;65.05;100494.61;;;;-55
2020/07/03 02:49:04;;;;;;;1.58;1.48;;;;;;;21.59;65.09;100497.14;;;;-56
2020/07/03 02:52:04;;;;;;;1.51;1.41;;;;;;;21.59;65.10;100499.19;;;;-55
2020/07/03 02:55:05;;;;;;;1.53;1.42;;;;;;;21.59;65.19;100498.05;;;;-55
2020/07/03 02:58:05;;;;;;;1.56;1.46;;;;;;;21.58;65.14;100499.04;;;;-55
2020/07/03 03:01:04;;;;;;;1.41;1.31;;;;;;;21.58;65.09;100502.22;;;;-55
2020/07/03 03:04:04;;;;;;;1.43;1.33;;;;;;;21.58;65.11;100507.52;;;;-55
2020/07/03 03:07:04;;;;;;;1.40;1.30;;;;;;;21.58;65.12;100512.25;;;;-55
2020/07/03 03:10:04;;;;;;;1.50;1.40;;;;;;;21.58;65.17;100509.37;;;;-54
2020/07/03 03:13:04;;;;;;;1.54;1.41;;;;;;;21.57;65.07;100513.21;;;;-55
2020/07/03 03:16:04;;;;;;;1.51;1.41;;;;;;;21.57;65.20;100511.42;;;;-55
2020/07/03 03:19:04;;;;;;;1.51;1.41;;;;;;;21.57;65.11;100514.92;;;;-55
2020/07/03 03:22:04;;;;;;;1.52;1.42;;;;;;;21.57;65.15;100513.95;;;;-54
2020/07/03 03:25:04;;;;;;;1.55;1.45;;;;;;;21.57;65.19;100518.77;;;;-55
2020/07/03 03:28:04;;;;;;;1.50;1.40;;;;;;;21.56;65.20;100515.52;;;;-55
2020/07/03 03:31:04;;;;;;;1.49;1.39;;;;;;;21.56;65.21;100522.36;;;;-55
2020/07/03 03:34:04;;;;;;;1.50;1.40;;;;;;;21.56;65.26;100524.81;;;;-55
2020/07/03 03:37:04;;;;;;;1.49;1.39;;;;;;;21.56;65.21;100534.57;;;;-55
2020/07/03 03:40:04;;;;;;;1.49;1.39;;;;;;;21.56;65.20;100536.36;;;;-55
2020/07/03 03:43:04;;;;;;;1.50;1.40;;;;;;;21.55;65.22;100541.68;;;;-54
2020/07/03 03:46:04;;;;;;;1.59;1.49;;;;;;;21.55;65.31;100541.93;;;;-55
2020/07/03 03:49:04;;;;;;;1.55;1.45;;;;;;;21.54;65.27;100544.78;;;;-55
2020/07/03 03:52:04;;;;;;;1.51;1.41;;;;;;;21.54;65.22;100545.02;;;;-55
2020/07/03 03:55:04;;;;;;;1.53;1.43;;;;;;;21.54;65.24;100546.31;;;;-55
2020/07/03 03:58:04;;;;;;;1.48;1.37;;;;;;;21.54;65.30;100548.95;;;;-55
2020/07/03 04:01:04;;;;;;;1.49;1.39;;;;;;;21.53;65.27;100554.00;;;;-55
2020/07/03 04:04:05;;;;;;;1.49;1.39;;;;;;;21.53;65.26;100560.84;;;;-55
2020/07/03 04:07:04;;;;;;;1.50;1.40;;;;;;;21.53;65.34;100560.77;;;;-55
2020/07/03 04:10:04;;;;;;;1.56;1.46;;;;;;;21.53;65.28;100563.45;;;;-55
2020/07/03 04:13:04;;;;;;;2.10;1.50;;;;;;;21.52;65.24;100565.66;;;;-55
2020/07/03 04:16:04;;;;;;;1.40;1.30;;;;;;;21.52;65.25;100567.68;;;;-55
2020/07/03 04:19:04;;;;;;;1.59;1.49;;;;;;;21.52;65.25;100576.10;;;;-55
2020/07/03 04:22:04;;;;;;;1.50;1.40;;;;;;;21.51;65.39;100575.93;;;;-55
2020/07/03 04:25:04;;;;;;;1.46;1.36;;;;;;;21.50;65.65;100581.24;;;;-55
2020/07/03 04:28:04;;;;;;;1.75;1.65;;;;;;;21.49;65.48;100583.17;;;;-55
2020/07/03 04:31:04;;;;;;;1.69;1.59;;;;;;;21.48;65.28;100594.02;;;;-55
2020/07/03 04:34:04;;;;;;;1.96;1.80;;;;;;;21.47;65.07;100600.88;;;;-55
2020/07/03 04:37:04;;;;;;;2.01;1.82;;;;;;;21.46;64.65;100599.83;;;;-56
2020/07/03 04:40:04;;;;;;;2.07;1.87;;;;;;;21.46;64.44;100603.75;;;;-55
2020/07/03 04:43:04;;;;;;;3.10;2.00;;;;;;;21.45;64.18;100600.13;;;;-54
2020/07/03 04:46:04;;;;;;;2.28;1.92;;;;;;;21.45;64.17;100599.81;;;;-55
2020/07/03 04:49:04;;;;;;;2.45;2.02;;;;;;;21.44;64.10;100602.03;;;;-55
2020/07/03 04:52:04;;;;;;;2.34;2.04;;;;;;;21.45;63.70;100608.62;;;;-54
2020/07/03 04:55:04;;;;;;;2.17;1.97;;;;;;;21.44;63.28;100606.51;;;;-55
2020/07/03 04:58:04;;;;;;;3.71;1.97;;;;;;;21.45;63.21;100609.77;;;;-55
2020/07/03 05:01:04;;;;;;;3.31;2.02;;;;;;;21.44;63.44;100609.61;;;;-55
2020/07/03 05:04:04;;;;;;;2.28;2.00;;;;;;;21.44;63.49;100611.90;;;;-55
2020/07/03 05:07:04;;;;;;;2.41;2.07;;;;;;;21.45;63.74;100612.45;;;;-55
2020/07/03 05:10:04;;;;;;;6.31;2.25;;;;;;;21.45;63.67;100616.05;;;;-55
2020/07/03 05:13:04;;;;;;;4.88;2.21;;;;;;;21.45;63.74;100622.56;;;;-56
2020/07/03 05:16:04;;;;;;;5.45;2.21;;;;;;;21.45;63.85;100625.34;;;;-55
2020/07/03 05:19:05;;;;;;;8.64;2.63;;;;;;;21.45;63.78;100626.81;;;;-55
2020/07/03 05:22:04;;;;;;;7.95;2.49;;;;;;;21.44;63.86;100625.43;;;;-55
2020/07/03 05:25:04;;;;;;;6.35;2.44;;;;;;;21.44;63.96;100624.38;;;;-55
2020/07/03 05:28:04;;;;;;;14.15;2.38;;;;;;;21.40;62.74;100619.69;;;;-57
2020/07/03 05:31:04;;;;;;;4.09;2.06;;;;;;;21.27;61.00;100624.73;;;;-55
2020/07/03 05:34:04;;;;;;;3.31;2.24;;;;;;;21.16;60.61;100628.28;;;;-59
2020/07/03 05:37:04;;;;;;;3.12;1.89;;;;;;;21.06;60.27;100631.75;;;;-59
2020/07/03 05:40:04;;;;;;;2.55;2.05;;;;;;;20.95;59.88;100631.98;;;;-58
2020/07/03 05:43:04;;;;;;;3.43;2.11;;;;;;;20.92;60.10;100640.30;;;;-57
2020/07/03 05:46:04;;;;;;;4.17;2.08;;;;;;;20.88;59.73;100644.11;;;;-57
2020/07/03 05:49:04;;;;;;;2.60;2.10;;;;;;;20.84;59.87;100647.68;;;;-57
2020/07/03 05:52:04;;;;;;;2.15;1.93;;;;;;;20.78;59.57;100651.55;;;;-57
2020/07/03 05:55:04;;;;;;;2.50;1.89;;;;;;;20.77;59.96;100660.83;;;;-58
2020/07/03 05:58:04;;;;;;;5.19;2.32;;;;;;;20.77;59.44;100663.68;;;;-57
2020/07/03 06:01:04;;;;;;;4.65;2.06;;;;;;;20.71;59.20;100672.31;;;;-57
2020/07/03 06:04:04;;;;;;;4.85;2.17;;;;;;;20.69;59.21;100674.66;;;;-58
2020/07/03 06:07:04;;;;;;;2.86;2.11;;;;;;;20.69;58.87;100674.01;;;;-57
2020/07/03 06:10:04;;;;;;;2.89;1.96;;;;;;;20.69;58.46;100675.13;;;;-58
2020/07/03 06:13:04;;;;;;;4.08;2.00;;;;;;;20.66;58.77;100672.27;;;;-57
2020/07/03 06:16:04;;;;;;;3.92;2.17;;;;;;;20.66;58.72;100673.89;;;;-57
2020/07/03 06:19:04;;;;;;;3.98;2.01;;;;;;;20.67;58.68;100672.86;;;;-57
2020/07/03 06:22:04;;;;;;;4.84;2.13;;;;;;;20.71;59.15;100676.36;;;;-60
2020/07/03 06:25:04;;;;;;;6.27;1.99;;;;;;;20.74;59.16;100671.34;;;;-57
2020/07/03 06:28:04;;;;;;;3.04;2.09;;;;;;;20.72;59.27;100671.00;;;;-58
2020/07/03 06:31:04;;;;;;;2.66;1.99;;;;;;;20.71;59.37;100672.06;;;;-58
2020/07/03 06:34:04;;;;;;;2.85;2.07;;;;;;;20.69;59.14;100674.25;;;;-58
2020/07/03 06:37:04;;;;;;;3.29;2.17;;;;;;;20.73;59.32;100675.47;;;;-60
2020/07/03 06:40:04;;;;;;;3.71;2.13;;;;;;;20.75;59.36;100671.89;;;;-60
2020/07/03 06:43:04;;;;;;;3.09;1.91;;;;;;;20.74;58.90;100674.75;;;;-57
2020/07/03 06:46:04;;;;;;;3.61;1.85;;;;;;;20.74;58.75;100669.38;;;;-60
2020/07/03 06:49:04;;;;;;;3.35;2.08;;;;;;;20.73;58.53;100669.71;;;;-58
2020/07/03 06:52:04;;;;;;;2.97;1.91;;;;;;;20.73;58.61;100671.64;;;;-60
2020/07/03 06:55:04;;;;;;;2.28;1.83;;;;;;;20.74;58.84;100670.92;;;;-58
2020/07/03 06:58:04;;;;;;;2.05;1.75;;;;;;;20.78;59.04;100669.97;;;;-57
2020/07/03 07:01:04;;;;;;;3.68;2.06;;;;;;;20.79;58.89;100664.91;;;;-57
2020/07/03 07:04:04;;;;;;;3.38;1.89;;;;;;;20.78;58.49;100667.61;;;;-57
2020/07/03 07:07:04;;;;;;;3.53;2.05;;;;;;;20.77;58.43;100671.58;;;;-57
2020/07/03 07:10:04;;;;;;;4.46;2.05;;;;;;;20.75;58.29;100671.98;;;;-57
2020/07/03 07:13:05;;;;;;;2.61;1.80;;;;;;;20.74;58.02;100675.08;;;;-59
2020/07/03 07:16:04;;;;;;;2.73;1.81;;;;;;;20.73;58.10;100678.56;;;;-57
2020/07/03 07:19:04;;;;;;;2.94;2.08;;;;;;;20.69;57.99;100677.08;;;;-57
2020/07/03 07:22:04;;;;;;;2.81;1.95;;;;;;;20.68;58.35;100674.72;;;;-58
2020/07/03 07:25:04;;;;;;;2.40;1.83;;;;;;;20.71;58.48;100676.84;;;;-60
2020/07/03 07:28:04;;;;;;;3.46;2.16;;;;;;;20.72;58.79;100681.34;;;;-57
2020/07/03 07:31:04;;;;;;;3.22;1.98;;;;;;;20.74;58.76;100681.67;;;;-60
2020/07/03 07:34:04;;;;;;;3.03;2.02;;;;;;;20.71;58.04;100680.70;;;;-60
2020/07/03 07:37:04;;;;;;;4.02;2.11;;;;;;;20.69;57.74;100682.48;;;;-60
2020/07/03 07:40:04;;;;;;;4.15;2.09;;;;;;;20.71;57.98;100680.43;;;;-58
2020/07/03 07:43:04;;;;;;;4.23;2.12;;;;;;;20.72;58.32;100681.02;;;;-57
2020/07/03 07:46:04;;;;;;;3.85;1.90;;;;;;;20.74;58.30;100679.32;;;;-59
2020/07/03 07:49:04;;;;;;;2.98;1.79;;;;;;;20.75;57.80;100680.06;;;;-57
2020/07/03 07:52:04;;;;;;;3.53;1.87;;;;;;;20.76;56.63;100677.86;;;;-61
2020/07/03 07:55:04;;;;;;;3.26;1.95;;;;;;;20.78;57.48;100676.16;;;;-58
2020/07/03 07:58:04;;;;;;;2.76;1.97;;;;;;;20.83;58.14;100675.27;;;;-53
2020/07/03 08:01:04;;;;;;;4.48;1.89;;;;;;;20.87;58.31;100676.11;;;;-61
2020/07/03 08:04:04;;;;;;;6.97;2.07;;;;;;;20.90;58.99;100683.88;;;;-57
2020/07/03 08:07:04;;;;;;;5.33;1.95;;;;;;;20.93;59.00;100674.98;;;;-57
2020/07/03 08:10:04;;;;;;;7.51;1.94;;;;;;;20.97;59.26;100677.86;;;;-57
2020/07/03 08:13:04;;;;;;;4.01;1.90;;;;;;;20.99;59.49;100676.31;;;;-53
2020/07/03 08:16:04;;;;;;;2.89;1.83;;;;;;;21.02;59.67;100677.70;;;;-57
2020/07/03 08:19:04;;;;;;;4.07;1.90;;;;;;;21.05;59.86;100674.47;;;;-59
2020/07/03 08:22:04;;;;;;;3.31;2.05;;;;;;;21.07;60.01;100676.84;;;;-54
2020/07/03 08:25:04;;;;;;;6.29;1.93;;;;;;;21.09;60.11;100677.48;;;;-54
2020/07/03 08:28:04;;;;;;;4.63;1.81;;;;;;;21.12;60.30;100677.66;;;;-62
2020/07/03 08:31:04;;;;;;;3.40;1.84;;;;;;;21.12;60.16;100673.58;;;;-62
2020/07/03 08:34:04;;;;;;;5.19;1.90;;;;;;;21.14;60.24;100674.65;;;;-58
2020/07/03 08:37:04;;;;;;;8.61;2.18;;;;;;;21.15;60.57;100673.04;;;;-60
2020/07/03 08:40:04;;;;;;;13.31;2.25;;;;;;;21.16;60.53;100671.23;;;;-57
2020/07/03 08:43:04;;;;;;;4.96;2.14;;;;;;;21.17;60.62;100675.08;;;;-58
2020/07/03 08:46:04;;;;;;;8.10;1.99;;;;;;;21.19;60.81;100673.70;;;;-57
2020/07/03 08:49:04;;;;;;;5.45;1.83;;;;;;;21.20;60.92;100674.91;;;;-60
2020/07/03 08:52:04;;;;;;;3.25;1.69;;;;;;;21.22;61.14;100682.98;;;;-58
2020/07/03 08:55:04;;;;;;;4.46;1.92;;;;;;;21.24;61.15;100686.81;;;;-59
2020/07/03 08:58:04;;;;;;;4.41;1.82;;;;;;;21.26;61.25;100683.16;;;;-56
2020/07/03 09:01:04;;;;;;;6.75;1.95;;;;;;;21.28;61.35;100683.98;;;;-58
2020/07/03 09:04:04;;;;;;;3.33;2.16;;;;;;;21.30;61.41;100684.06;;;;-53
2020/07/03 09:07:04;;;;;;;4.41;1.93;;;;;;;21.32;61.44;100691.01;;;;-58
2020/07/03 09:10:04;;;;;;;4.44;1.87;;;;;;;21.33;61.46;100682.59;;;;-57
2020/07/03 09:13:04;;;;;;;4.11;1.89;;;;;;;21.34;61.54;100683.83;;;;-57
2020/07/03 09:16:04;;;;;;;5.28;1.87;;;;;;;21.35;61.69;100678.47;;;;-60
2020/07/03 09:19:04;;;;;;;10.47;1.99;;;;;;;21.37;61.78;100682.11;;;;-58
2020/07/03 09:22:04;;;;;;;8.51;2.27;;;;;;;21.39;62.00;100681.30;;;;-50
2020/07/03 09:25:04;;;;;;;5.40;2.00;;;;;;;21.40;61.99;100683.28;;;;-48
2020/07/03 09:28:04;;;;;;;7.09;1.97;;;;;;;21.42;61.99;100686.14;;;;-51
2020/07/03 09:31:04;;;;;;;5.23;1.85;;;;;;;21.43;62.05;100681.02;;;;-50
2020/07/03 09:34:04;;;;;;;4.11;1.99;;;;;;;21.45;62.12;100680.13;;;;-48
2020/07/03 09:37:04;;;;;;;5.83;1.81;;;;;;;21.46;62.17;100667.42;;;;-60
2020/07/03 09:40:04;;;;;;;6.56;2.00;;;;;;;21.47;62.18;100669.86;;;;-51
2020/07/03 09:43:04;;;;;;;4.95;2.26;;;;;;;21.48;62.18;100668.22;;;;-54
2020/07/03 09:46:04;;;;;;;6.37;2.01;;;;;;;21.48;62.07;100671.97;;;;-54
2020/07/03 09:49:04;;;;;;;5.11;2.16;;;;;;;21.48;62.02;100672.78;;;;-54
2020/07/03 09:52:04;;;;;;;6.52;1.90;;;;;;;21.48;62.08;100677.84;;;;-54
2020/07/03 09:55:04;;;;;;;3.72;1.80;;;;;;;21.47;62.05;100683.15;;;;-54
2020/07/03 09:58:04;;;;;;;5.47;1.99;;;;;;;21.46;62.03;100683.16;;;;-54
2020/07/03 10:01:04;;;;;;;3.93;1.80;;;;;;;21.47;62.03;100676.87;;;;-55
2020/07/03 10:04:04;;;;;;;4.54;1.88;;;;;;;21.47;62.02;100677.12;;;;-54
2020/07/03 10:07:04;;;;;;;4.43;1.71;;;;;;;21.46;62.03;100679.24;;;;-54
2020/07/03 10:10:04;;;;;;;3.21;1.81;;;;;;;21.46;62.00;100671.17;;;;-54
2020/07/03 10:13:04;;;;;;;3.71;1.87;;;;;;;21.46;61.97;100679.30;;;;-54
2020/07/03 10:16:04;;;;;;;4.35;1.79;;;;;;;21.45;61.99;100667.56;;;;-53
2020/07/03 10:19:04;;;;;;;3.83;1.91;;;;;;;21.45;62.02;100673.69;;;;-54
2020/07/03 10:22:04;;;;;;;3.33;1.71;;;;;;;21.45;62.07;100668.22;;;;-54
2020/07/03 10:25:04;;;;;;;5.15;1.94;;;;;;;21.45;62.07;100670.59;;;;-53
2020/07/03 10:28:04;;;;;;;5.73;1.87;;;;;;;21.45;62.05;100668.79;;;;-54
2020/07/03 10:31:04;;;;;;;3.74;1.65;;;;;;;21.45;62.04;100667.25;;;;-54
2020/07/03 10:34:04;;;;;;;3.85;1.81;;;;;;;21.45;62.04;100668.06;;;;-54
2020/07/03 10:37:04;;;;;;;2.39;1.84;;;;;;;21.45;62.04;100673.77;;;;-52
2020/07/03 10:40:04;;;;;;;3.54;1.89;;;;;;;21.45;62.03;100667.08;;;;-51
2020/07/03 10:43:04;;;;;;;5.73;1.89;;;;;;;21.45;62.00;100663.98;;;;-49
2020/07/03 10:46:04;;;;;;;2.93;1.63;;;;;;;21.44;62.06;100663.67;;;;-49
2020/07/03 10:49:04;;;;;;;4.67;1.90;;;;;;;21.45;62.00;100672.88;;;;-49
2020/07/03 10:52:04;;;;;;;2.73;1.71;;;;;;;21.45;62.07;100663.74;;;;-49
2020/07/03 10:55:04;;;;;;;3.24;1.67;;;;;;;21.45;62.11;100660.73;;;;-49
2020/07/03 10:58:04;;;;;;;4.85;1.87;;;;;;;21.44;62.10;100662.93;;;;-48
2020/07/03 11:01:04;;;;;;;2.62;1.60;;;;;;;21.45;62.10;100662.44;;;;-49
2020/07/03 11:04:04;;;;;;;3.22;1.70;;;;;;;21.45;62.12;100657.22;;;;-54
2020/07/03 11:07:04;;;;;;;3.94;1.83;;;;;;;21.46;62.01;100661.95;;;;-47
2020/07/03 11:10:04;;;;;;;3.62;1.67;;;;;;;21.46;62.10;100656.91;;;;-52
2020/07/03 11:13:04;;;;;;;4.25;1.69;;;;;;;21.45;62.10;100658.52;;;;-52
2020/07/03 11:16:04;;;;;;;3.27;1.62;;;;;;;21.45;62.06;100661.45;;;;-52
2020/07/03 11:19:04;;;;;;;2.31;1.79;;;;;;;21.46;62.16;100664.30;;;;-47
2020/07/03 11:22:04;;;;;;;2.88;1.63;;;;;;;21.45;62.16;100658.44;;;;-47
2020/07/03 11:25:04;;;;;;;4.30;1.67;;;;;;;21.45;62.10;100661.61;;;;-47
2020/07/03 11:28:04;;;;;;;5.17;1.67;;;;;;;21.45;62.14;100653.22;;;;-48
2020/07/03 11:31:04;;;;;;;2.29;1.61;;;;;;;21.45;62.13;100657.55;;;;-47
2020/07/03 11:34:04;;;;;;;2.59;1.66;;;;;;;21.45;62.19;100658.77;;;;-52
2020/07/03 11:37:04;;;;;;;4.12;1.51;;;;;;;21.45;62.16;100652.33;;;;-52
2020/07/03 11:40:04;;;;;;;3.49;1.53;;;;;;;21.45;62.16;100655.98;;;;-52
2020/07/03 11:43:04;;;;;;;2.69;1.70;;;;;;;21.45;62.14;100659.33;;;;-52
2020/07/03 11:46:05;;;;;;;2.19;1.53;;;;;;;21.46;62.19;100665.77;;;;-47
2020/07/03 11:49:04;;;;;;;3.12;1.59;;;;;;;21.45;62.14;100660.16;;;;-52
2020/07/03 11:52:04;;;;;;;1.83;1.50;;;;;;;21.45;62.25;100653.55;;;;-48
2020/07/03 11:55:04;;;;;;;2.22;1.53;;;;;;;21.45;62.25;100656.81;;;;-55
2020/07/03 11:58:04;;;;;;;2.40;1.53;;;;;;;21.45;62.20;100651.50;;;;-48
2020/07/03 12:01:04;;;;;;;3.17;1.53;;;;;;;21.45;62.19;100649.38;;;;-47
2020/07/03 12:04:04;;;;;;;2.70;1.60;;;;;;;21.45;62.23;100650.52;;;;-55
2020/07/03 12:07:04;;;;;;;2.45;1.69;;;;;;;21.45;62.25;100650.20;;;;-47
2020/07/03 12:10:04;;;;;;;2.77;1.63;;;;;;;21.45;62.21;100645.30;;;;-55
2020/07/03 12:13:04;;;;;;;2.50;1.59;;;;;;;21.45;62.24;100644.09;;;;-52
2020/07/03 12:16:04;;;;;;;2.65;1.60;;;;;;;21.45;62.21;100644.91;;;;-52
2020/07/03 12:19:04;;;;;;;4.09;1.58;;;;;;;21.45;62.44;100641.97;;;;-51
2020/07/03 12:22:04;;;;;;;2.09;1.58;;;;;;;21.47;62.39;100644.42;;;;-51
2020/07/03 12:25:04;;;;;;;2.38;1.61;;;;;;;21.48;62.33;100641.25;;;;-50
2020/07/03 12:28:04;;;;;;;2.96;1.43;;;;;;;21.49;62.30;100642.30;;;;-50
2020/07/03 12:31:04;;;;;;;1.53;1.40;;;;;;;21.50;62.29;100634.90;;;;-50
2020/07/03 12:34:04;;;;;;;3.30;1.50;;;;;;;21.51;62.28;100625.17;;;;-54
2020/07/03 12:37:04;;;;;;;2.37;1.50;;;;;;;21.53;62.33;100626.57;;;;-51
2020/07/03 12:40:04;;;;;;;2.77;1.58;;;;;;;21.53;62.36;100621.09;;;;-54
2020/07/03 12:43:04;;;;;;;3.85;1.57;;;;;;;21.55;62.35;100622.34;;;;-51
2020/07/03 12:46:04;;;;;;;3.89;1.54;;;;;;;21.55;62.43;100616.70;;;;-59
2020/07/03 12:49:04;;;;;;;3.75;1.50;;;;;;;21.54;62.46;100623.97;;;;-60
2020/07/03 12:52:04;;;;;;;2.65;1.67;;;;;;;21.53;62.43;100626.64;;;;-59
2020/07/03 12:55:04;;;;;;;3.76;1.56;;;;;;;21.54;62.48;100625.82;;;;-60
2020/07/03 12:58:04;;;;;;;2.85;1.50;;;;;;;21.54;62.49;100614.81;;;;-61
2020/07/03 13:01:04;;;;;;;1.50;1.40;;;;;;;21.54;62.50;100609.34;;;;-60
2020/07/03 13:04:04;;;;;;;2.25;1.40;;;;;;;21.54;62.50;100615.38;;;;-59
2020/07/03 13:07:04;;;;;;;1.80;1.40;;;;;;;21.53;62.48;100602.42;;;;-58
2020/07/03 13:10:04;;;;;;;1.81;1.46;;;;;;;21.53;62.49;100606.67;;;;-58
2020/07/03 13:13:04;;;;;;;1.60;1.50;;;;;;;21.53;62.50;100604.47;;;;-58
2020/07/03 13:16:04;;;;;;;1.67;1.40;;;;;;;21.53;62.52;100608.22;;;;-60
2020/07/03 13:19:04;;;;;;;3.36;1.58;;;;;;;21.52;62.50;100602.20;;;;-59
2020/07/03 13:22:04;;;;;;;2.13;1.53;;;;;;;21.52;62.54;100597.28;;;;-58
2020/07/03 13:25:04;;;;;;;1.59;1.49;;;;;;;21.53;62.55;100601.77;;;;-59
2020/07/03 13:28:04;;;;;;;1.67;1.50;;;;;;;21.52;62.51;100591.25;;;;-59
2020/07/03 13:31:04;;;;;;;1.93;1.52;;;;;;;21.52;62.54;100602.98;;;;-58
2020/07/03 13:34:04;;;;;;;1.42;1.32;;;;;;;21.52;62.51;100602.03;;;;-58
2020/07/03 13:37:04;;;;;;;3.02;1.53;;;;;;;21.53;62.49;100598.69;;;;-60
2020/07/03 13:40:04;;;;;;;2.14;1.41;;;;;;;21.52;62.56;100600.87;;;;-60
2020/07/03 13:43:04;;;;;;;1.66;1.44;;;;;;;21.52;62.54;100603.56;;;;-58
2020/07/03 13:46:04;;;;;;;1.90;1.53;;;;;;;21.51;62.56;100602.34;;;;-59
2020/07/03 13:49:04;;;;;;;2.63;1.49;;;;;;;21.51;62.57;100596.56;;;;-59
2020/07/03 13:52:04;;;;;;;2.94;1.47;;;;;;;21.51;62.52;100588.90;;;;-59
2020/07/03 13:55:04;;;;;;;2.39;1.45;;;;;;;21.52;62.52;100598.34;;;;-60
2020/07/03 13:58:04;;;;;;;1.39;1.29;;;;;;;21.52;62.54;100594.94;;;;-58
2020/07/03 14:01:04;;;;;;;1.90;1.43;;;;;;;21.52;62.55;100588.88;;;;-59
2020/07/03 14:04:04;;;;;;;1.54;1.40;;;;;;;21.51;62.63;100587.34;;;;-58
2020/07/03 14:07:04;;;;;;;1.83;1.42;;;;;;;21.51;62.58;100587.02;;;;-60
2020/07/03 14:10:04;;;;;;;2.15;1.40;;;;;;;21.51;62.60;100579.19;;;;-59
2020/07/03 14:13:04;;;;;;;2.85;1.35;;;;;;;21.51;62.57;100589.72;;;;-58
2020/07/03 14:16:04;;;;;;;2.29;1.39;;;;;;;21.51;62.57;100584.90;;;;-58
2020/07/03 14:19:04;;;;;;;1.69;1.31;;;;;;;21.51;62.60;100580.91;;;;-59
2020/07/03 14:22:04;;;;;;;2.36;1.56;;;;;;;21.50;62.64;100581.97;;;;-59
2020/07/03 14:25:04;;;;;;;1.58;1.46;;;;;;;21.51;62.57;100574.70;;;;-59
2020/07/03 14:28:04;;;;;;;1.99;1.29;;;;;;;21.51;62.59;100566.55;;;;-59
2020/07/03 14:31:04;;;;;;;1.65;1.31;;;;;;;21.50;62.61;100566.80;;;;-59
2020/07/03 14:34:04;;;;;;;1.49;1.39;;;;;;;21.50;62.64;100565.75;;;;-61
2020/07/03 14:37:04;;;;;;;1.40;1.30;;;;;;;21.50;62.64;100565.83;;;;-59
2020/07/03 14:40:04;;;;;;;2.25;1.37;;;;;;;21.50;62.65;100566.48;;;;-58
2020/07/03 14:43:04;;;;;;;1.50;1.40;;;;;;;21.50;62.66;100564.20;;;;-60
2020/07/03 14:46:04;;;;;;;2.34;1.51;;;;;;;21.50;62.65;100562.33;;;;-60
2020/07/03 14:49:04;;;;;;;2.64;1.46;;;;;;;21.50;62.69;100563.38;;;;-48
2020/07/03 14:52:04;;;;;;;2.23;1.48;;;;;;;21.49;62.63;100560.27;;;;-48
2020/07/03 14:55:04;;;;;;;1.51;1.37;;;;;;;21.49;62.70;100559.86;;;;-48
2020/07/03 14:58:04;;;;;;;1.67;1.43;;;;;;;21.49;62.72;100565.56;;;;-49
2020/07/03 15:01:04;;;;;;;1.68;1.30;;;;;;;21.49;62.69;100560.43;;;;-50
2020/07/03 15:04:04;;;;;;;1.50;1.40;;;;;;;21.49;62.68;100558.55;;;;-53
2020/07/03 15:07:04;;;;;;;1.79;1.38;;;;;;;21.50;62.69;100559.77;;;;-53
2020/07/03 15:10:04;;;;;;;1.36;1.26;;;;;;;21.49;62.75;100551.55;;;;-51
2020/07/03 15:13:04;;;;;;;2.60;1.42;;;;;;;21.51;62.79;100556.28;;;;-59
2020/07/03 15:16:04;;;;;;;4.28;1.50;;;;;;;21.52;62.78;100549.36;;;;-52
2020/07/03 15:19:04;;;;;;;5.48;1.71;;;;;;;21.54;62.71;100553.35;;;;-51
2020/07/03 15:22:04;;;;;;;5.76;1.50;;;;;;;21.56;62.93;100548.02;;;;-56
2020/07/03 15:25:04;;;;;;;7.87;1.39;;;;;;;21.58;62.88;100549.66;;;;-55
2020/07/03 15:28:04;;;;;;;6.68;1.43;;;;;;;21.59;63.03;100549.82;;;;-52
2020/07/03 15:31:04;;;;;;;3.33;1.47;;;;;;;21.60;63.10;100552.91;;;;-51
2020/07/03 15:34:04;;;;;;;2.99;1.47;;;;;;;21.62;62.98;100560.02;;;;-50
2020/07/03 15:37:04;;;;;;;2.56;1.43;;;;;;;21.63;63.08;100563.94;;;;-49
2020/07/03 15:40:04;;;;;;;4.23;1.60;;;;;;;21.65;63.05;100567.94;;;;-52
2020/07/03 15:43:04;;;;;;;2.43;1.52;;;;;;;21.66;63.00;100566.78;;;;-51
2020/07/03 15:46:04;;;;;;;3.44;1.41;;;;;;;21.66;63.13;100562.62;;;;-52
2020/07/03 15:49:04;;;;;;;5.55;1.79;;;;;;;21.66;63.09;100563.11;;;;-53
2020/07/03 15:52:04;;;;;;;4.61;1.65;;;;;;;21.67;63.04;100561.41;;;;-52
2020/07/03 15:55:04;;;;;;;2.94;1.41;;;;;;;21.67;63.03;100557.33;;;;-51
2020/07/03 15:58:04;;;;;;;3.78;1.51;;;;;;;21.68;63.18;100558.13;;;;-56
2020/07/03 16:01:04;;;;;;;4.49;1.56;;;;;;;21.69;62.94;100558.80;;;;-62
2020/07/03 16:04:04;;;;;;;2.23;1.62;;;;;;;21.67;62.98;100554.95;;;;-62
2020/07/03 16:07:04;;;;;;;3.95;1.53;;;;;;;21.67;63.08;100556.76;;;;-63
2020/07/03 16:10:04;;;;;;;4.93;1.61;;;;;;;21.66;63.08;100549.56;;;;-63
2020/07/03 16:13:04;;;;;;;4.39;1.71;;;;;;;21.67;63.00;100555.22;;;;-63
2020/07/03 16:16:04;;;;;;;5.39;1.72;;;;;;;21.66;63.09;100549.00;;;;-63
2020/07/03 16:19:04;;;;;;;2.77;1.63;;;;;;;21.66;63.00;100553.56;;;;-63
2020/07/03 16:22:04;;;;;;;4.83;1.55;;;;;;;21.65;63.19;100545.42;;;;-59
2020/07/03 16:25:04;;;;;;;3.29;1.43;;;;;;;21.67;63.01;100547.54;;;;-52
2020/07/03 16:28:04;;;;;;;3.27;1.43;;;;;;;21.69;62.89;100544.77;;;;-51
2020/07/03 16:31:04;;;;;;;4.46;1.60;;;;;;;21.70;62.86;100548.17;;;;-55
2020/07/03 16:34:04;;;;;;;3.17;1.59;;;;;;;21.72;62.83;100550.88;;;;-61
2020/07/03 16:37:04;;;;;;;5.11;1.60;;;;;;;21.72;62.84;100549.56;;;;-53
2020/07/03 16:40:04;;;;;;;8.57;1.74;;;;;;;21.73;62.93;100551.29;;;;-54
2020/07/03 16:43:04;;;;;;;3.47;1.53;;;;;;;21.74;62.94;100557.88;;;;-54